Pagrindinis puslapis
METAR-TAF:

METAR-TAF

Oro uostai :

Santa Rosa, Argentina

platuma: 36-34S, ilguma: 064-16W, Aukštis: 190 m

Dabartinis oras

Ataskaita buvo paskelbta 9 valandos ir 15 minutes, ne 09:10 UTC
Vėjas 12 kt iš Rytų/Šiaurės Rytų
Temperatūra 21°C
Drėgmė 73%
Slėgis 1002 hPa
Matomumas 10 km arba daugiau
Mažai debesys ne aukštis 5000 ft, Liūtiniai kamuoliniai debesys.
Apsiniaukę ne aukštis 10000 ft
perkūnija

METAR: SAZR 170910Z 07012KT 9999 TS FEW050CB OVC100 21/16 Q1002

Laikas: 15:25 (18:25 UTC)


TAF: trūkstamas

Orai ataskaitas ir orų prognozės (METAR, TAF).

turimą stotys yra geltonos ir raudonos taškus žemėlapyje.

Perkelti pele per norėdami pamatyti stoties vardą.

Tada spustelėkite, norėdami matyti oro stebėjimo ir prognozės.

Norėdami pakeisti žemėlapį: spustelėkite ant žalios mygtukų su juodo kryžiaus žemyn,; žalią mygtuką su brūkšneliu, jei norite nutolinti; arba žalių rodyklių gretimoms žemėlapius.


METAR-TAF: